sensor_id;sensor_type;location;lat;lon;timestamp;P1;durP1;ratioP1;P2;durP2;ratioP2
75218;SDS011;63801;49.414;19.474;2024-02-23T00:01:47;9.68;;;3.95;;
75218;SDS011;63801;49.414;19.474;2024-02-23T00:03:48;8.93;;;4.00;;
75218;SDS011;63801;49.414;19.474;2024-02-23T00:05:48;6.88;;;3.63;;
75218;SDS011;63801;49.414;19.474;2024-02-23T00:07:49;7.03;;;3.50;;
75218;SDS011;63801;49.414;19.474;2024-02-23T00:09:49;8.30;;;3.53;;
75218;SDS011;63801;49.414;19.474;2024-02-23T00:11:49;5.05;;;2.67;;
75218;SDS011;63801;49.414;19.474;2024-02-23T00:13:50;7.40;;;3.30;;
75218;SDS011;63801;49.414;19.474;2024-02-23T00:15:50;6.43;;;3.15;;
75218;SDS011;63801;49.414;19.474;2024-02-23T00:17:51;5.00;;;3.28;;
75218;SDS011;63801;49.414;19.474;2024-02-23T00:19:51;9.00;;;3.70;;
75218;SDS011;63801;49.414;19.474;2024-02-23T00:21:52;4.90;;;3.05;;
75218;SDS011;63801;49.414;19.474;2024-02-23T00:23:53;7.38;;;3.63;;
75218;SDS011;63801;49.414;19.474;2024-02-23T00:25:53;9.75;;;3.80;;
75218;SDS011;63801;49.414;19.474;2024-02-23T00:27:55;8.48;;;4.15;;
75218;SDS011;63801;49.414;19.474;2024-02-23T00:29:55;7.85;;;3.55;;
75218;SDS011;63801;49.414;19.474;2024-02-23T00:31:55;5.63;;;3.13;;
75218;SDS011;63801;49.414;19.474;2024-02-23T00:33:56;6.65;;;3.72;;
75218;SDS011;63801;49.414;19.474;2024-02-23T00:35:56;6.82;;;3.38;;
75218;SDS011;63801;49.414;19.474;2024-02-23T00:37:57;8.95;;;4.10;;
75218;SDS011;63801;49.414;19.474;2024-02-23T00:39:57;9.60;;;3.58;;
75218;SDS011;63801;49.414;19.474;2024-02-23T00:41:57;5.07;;;2.90;;
75218;SDS011;63801;49.414;19.474;2024-02-23T00:43:58;4.80;;;3.17;;
75218;SDS011;63801;49.414;19.474;2024-02-23T00:45:58;6.53;;;3.55;;
75218;SDS011;63801;49.414;19.474;2024-02-23T00:47:59;6.88;;;2.97;;
75218;SDS011;63801;49.414;19.474;2024-02-23T00:49:59;6.43;;;3.75;;
75218;SDS011;63801;49.414;19.474;2024-02-23T00:51:59;7.38;;;3.17;;
75218;SDS011;63801;49.414;19.474;2024-02-23T00:54:00;7.35;;;3.35;;
75218;SDS011;63801;49.414;19.474;2024-02-23T00:56:00;6.20;;;3.10;;
75218;SDS011;63801;49.414;19.474;2024-02-23T00:58:00;4.38;;;3.00;;
75218;SDS011;63801;49.414;19.474;2024-02-23T01:00:01;7.65;;;3.17;;
75218;SDS011;63801;49.414;19.474;2024-02-23T01:02:05;6.75;;;2.75;;
75218;SDS011;63801;49.414;19.474;2024-02-23T01:04:05;6.70;;;3.28;;
75218;SDS011;63801;49.414;19.474;2024-02-23T01:06:05;7.25;;;3.13;;
75218;SDS011;63801;49.414;19.474;2024-02-23T01:08:06;7.00;;;3.28;;
75218;SDS011;63801;49.414;19.474;2024-02-23T01:10:06;8.32;;;3.30;;
75218;SDS011;63801;49.414;19.474;2024-02-23T01:12:07;6.40;;;3.38;;
75218;SDS011;63801;49.414;19.474;2024-02-23T01:14:08;5.38;;;2.80;;
75218;SDS011;63801;49.414;19.474;2024-02-23T01:16:09;9.65;;;3.47;;
75218;SDS011;63801;49.414;19.474;2024-02-23T01:18:10;8.13;;;3.53;;
75218;SDS011;63801;49.414;19.474;2024-02-23T01:20:10;6.93;;;3.55;;
75218;SDS011;63801;49.414;19.474;2024-02-23T01:22:11;6.07;;;3.35;;
75218;SDS011;63801;49.414;19.474;2024-02-23T01:24:11;5.38;;;3.20;;
75218;SDS011;63801;49.414;19.474;2024-02-23T01:26:11;6.90;;;3.42;;
75218;SDS011;63801;49.414;19.474;2024-02-23T01:28:14;7.55;;;3.72;;
75218;SDS011;63801;49.414;19.474;2024-02-23T01:30:14;5.28;;;3.03;;
75218;SDS011;63801;49.414;19.474;2024-02-23T01:32:15;6.55;;;3.30;;
75218;SDS011;63801;49.414;19.474;2024-02-23T01:34:15;5.82;;;3.20;;
75218;SDS011;63801;49.414;19.474;2024-02-23T01:36:16;5.28;;;2.90;;
75218;SDS011;63801;49.414;19.474;2024-02-23T01:38:16;5.53;;;2.92;;
75218;SDS011;63801;49.414;19.474;2024-02-23T01:40:20;7.13;;;2.95;;
75218;SDS011;63801;49.414;19.474;2024-02-23T01:42:21;5.05;;;3.00;;
75218;SDS011;63801;49.414;19.474;2024-02-23T01:44:21;6.43;;;3.00;;
75218;SDS011;63801;49.414;19.474;2024-02-23T01:46:22;6.47;;;3.15;;
75218;SDS011;63801;49.414;19.474;2024-02-23T01:48:22;6.43;;;3.17;;
75218;SDS011;63801;49.414;19.474;2024-02-23T01:50:23;8.32;;;2.90;;
75218;SDS011;63801;49.414;19.474;2024-02-23T01:52:24;6.03;;;3.10;;
75218;SDS011;63801;49.414;19.474;2024-02-23T01:54:25;5.78;;;2.85;;
75218;SDS011;63801;49.414;19.474;2024-02-23T01:56:28;6.63;;;3.28;;
75218;SDS011;63801;49.414;19.474;2024-02-23T01:58:29;7.05;;;2.70;;
75218;SDS011;63801;49.414;19.474;2024-02-23T02:00:30;7.72;;;3.00;;
75218;SDS011;63801;49.414;19.474;2024-02-23T02:02:31;6.97;;;2.97;;
75218;SDS011;63801;49.414;19.474;2024-02-23T02:04:32;5.50;;;2.67;;
75218;SDS011;63801;49.414;19.474;2024-02-23T02:06:32;5.72;;;3.38;;
75218;SDS011;63801;49.414;19.474;2024-02-23T02:08:35;7.32;;;3.35;;
75218;SDS011;63801;49.414;19.474;2024-02-23T02:10:37;5.95;;;2.83;;
75218;SDS011;63801;49.414;19.474;2024-02-23T02:12:37;4.60;;;3.03;;
75218;SDS011;63801;49.414;19.474;2024-02-23T02:14:37;5.20;;;2.60;;
75218;SDS011;63801;49.414;19.474;2024-02-23T02:16:38;6.22;;;3.13;;
75218;SDS011;63801;49.414;19.474;2024-02-23T02:18:38;4.55;;;2.88;;
75218;SDS011;63801;49.414;19.474;2024-02-23T02:20:38;5.10;;;3.05;;
75218;SDS011;63801;49.414;19.474;2024-02-23T02:22:47;4.88;;;2.70;;
75218;SDS011;63801;49.414;19.474;2024-02-23T02:24:47;9.70;;;3.33;;
75218;SDS011;63801;49.414;19.474;2024-02-23T02:26:48;6.32;;;2.67;;
75218;SDS011;63801;49.414;19.474;2024-02-23T02:28:50;6.35;;;3.08;;
75218;SDS011;63801;49.414;19.474;2024-02-23T02:30:51;4.65;;;2.92;;
75218;SDS011;63801;49.414;19.474;2024-02-23T02:32:52;4.68;;;3.28;;
75218;SDS011;63801;49.414;19.474;2024-02-23T02:34:53;6.82;;;2.58;;
75218;SDS011;63801;49.414;19.474;2024-02-23T02:36:53;5.45;;;2.95;;
75218;SDS011;63801;49.414;19.474;2024-02-23T02:38:53;5.10;;;2.53;;
75218;SDS011;63801;49.414;19.474;2024-02-23T02:40:53;6.85;;;2.63;;
75218;SDS011;63801;49.414;19.474;2024-02-23T02:42:54;5.20;;;3.00;;
75218;SDS011;63801;49.414;19.474;2024-02-23T02:44:54;5.72;;;2.50;;
75218;SDS011;63801;49.414;19.474;2024-02-23T02:46:54;4.97;;;2.40;;
75218;SDS011;63801;49.414;19.474;2024-02-23T02:48:55;4.53;;;2.42;;
75218;SDS011;63801;49.414;19.474;2024-02-23T02:50:55;6.03;;;2.22;;
75218;SDS011;63801;49.414;19.474;2024-02-23T02:52:55;4.32;;;2.50;;
75218;SDS011;63801;49.414;19.474;2024-02-23T02:54:56;4.10;;;2.40;;
75218;SDS011;63801;49.414;19.474;2024-02-23T02:56:56;4.10;;;1.88;;
75218;SDS011;63801;49.414;19.474;2024-02-23T02:58:57;4.78;;;2.10;;
75218;SDS011;63801;49.414;19.474;2024-02-23T03:00:57;4.25;;;2.10;;
75218;SDS011;63801;49.414;19.474;2024-02-23T03:02:57;3.47;;;1.90;;
75218;SDS011;63801;49.414;19.474;2024-02-23T03:04:58;3.40;;;2.10;;
75218;SDS011;63801;49.414;19.474;2024-02-23T03:06:58;4.60;;;2.35;;
75218;SDS011;63801;49.414;19.474;2024-02-23T03:08:58;4.82;;;2.17;;
75218;SDS011;63801;49.414;19.474;2024-02-23T03:10:59;4.50;;;2.00;;
75218;SDS011;63801;49.414;19.474;2024-02-23T03:12:59;3.72;;;2.22;;
75218;SDS011;63801;49.414;19.474;2024-02-23T03:14:59;4.45;;;2.30;;
75218;SDS011;63801;49.414;19.474;2024-02-23T03:17:06;4.35;;;2.08;;
75218;SDS011;63801;49.414;19.474;2024-02-23T03:19:07;3.67;;;1.90;;
75218;SDS011;63801;49.414;19.474;2024-02-23T03:21:08;2.17;;;1.48;;
75218;SDS011;63801;49.414;19.474;2024-02-23T03:23:09;5.47;;;1.98;;
75218;SDS011;63801;49.414;19.474;2024-02-23T03:25:10;5.15;;;1.80;;
75218;SDS011;63801;49.414;19.474;2024-02-23T03:27:11;4.45;;;2.10;;
75218;SDS011;63801;49.414;19.474;2024-02-23T03:29:12;3.75;;;2.08;;
75218;SDS011;63801;49.414;19.474;2024-02-23T03:31:12;2.70;;;1.58;;
75218;SDS011;63801;49.414;19.474;2024-02-23T03:33:12;3.75;;;1.77;;
75218;SDS011;63801;49.414;19.474;2024-02-23T03:35:13;4.22;;;1.60;;
75218;SDS011;63801;49.414;19.474;2024-02-23T03:37:14;3.22;;;2.03;;
75218;SDS011;63801;49.414;19.474;2024-02-23T03:39:15;3.60;;;1.73;;
75218;SDS011;63801;49.414;19.474;2024-02-23T03:41:15;3.50;;;1.50;;
75218;SDS011;63801;49.414;19.474;2024-02-23T03:43:15;2.83;;;1.50;;
75218;SDS011;63801;49.414;19.474;2024-02-23T03:45:16;3.55;;;1.73;;
75218;SDS011;63801;49.414;19.474;2024-02-23T03:47:16;3.65;;;1.65;;
75218;SDS011;63801;49.414;19.474;2024-02-23T03:49:16;3.63;;;1.67;;
75218;SDS011;63801;49.414;19.474;2024-02-23T03:51:17;5.38;;;2.95;;
75218;SDS011;63801;49.414;19.474;2024-02-23T03:53:17;3.40;;;1.73;;
75218;SDS011;63801;49.414;19.474;2024-02-23T03:55:18;5.60;;;2.13;;
75218;SDS011;63801;49.414;19.474;2024-02-23T03:57:18;2.20;;;1.38;;
75218;SDS011;63801;49.414;19.474;2024-02-23T03:59:18;2.67;;;1.50;;
75218;SDS011;63801;49.414;19.474;2024-02-23T04:01:19;4.55;;;1.58;;
75218;SDS011;63801;49.414;19.474;2024-02-23T04:03:19;2.47;;;1.38;;
75218;SDS011;63801;49.414;19.474;2024-02-23T04:05:19;4.55;;;1.70;;
75218;SDS011;63801;49.414;19.474;2024-02-23T04:07:20;1.80;;;1.13;;
75218;SDS011;63801;49.414;19.474;2024-02-23T04:09:20;2.83;;;1.50;;
75218;SDS011;63801;49.414;19.474;2024-02-23T04:11:21;3.25;;;1.40;;
75218;SDS011;63801;49.414;19.474;2024-02-23T04:13:22;2.17;;;1.35;;
75218;SDS011;63801;49.414;19.474;2024-02-23T04:15:22;2.13;;;1.38;;
75218;SDS011;63801;49.414;19.474;2024-02-23T04:17:23;2.28;;;1.52;;
75218;SDS011;63801;49.414;19.474;2024-02-23T04:19:23;2.40;;;1.50;;
75218;SDS011;63801;49.414;19.474;2024-02-23T04:21:23;2.42;;;1.35;;
75218;SDS011;63801;49.414;19.474;2024-02-23T04:23:24;2.17;;;1.35;;
75218;SDS011;63801;49.414;19.474;2024-02-23T04:25:24;2.45;;;1.35;;
75218;SDS011;63801;49.414;19.474;2024-02-23T04:27:24;4.82;;;1.10;;
75218;SDS011;63801;49.414;19.474;2024-02-23T04:29:25;1.98;;;1.42;;
75218;SDS011;63801;49.414;19.474;2024-02-23T04:31:25;2.42;;;1.50;;
75218;SDS011;63801;49.414;19.474;2024-02-23T04:33:25;1.70;;;1.30;;
75218;SDS011;63801;49.414;19.474;2024-02-23T04:35:26;2.53;;;1.35;;
75218;SDS011;63801;49.414;19.474;2024-02-23T04:37:26;2.78;;;1.40;;
75218;SDS011;63801;49.414;19.474;2024-02-23T04:39:27;2.20;;;1.30;;
75218;SDS011;63801;49.414;19.474;2024-02-23T04:41:27;1.85;;;1.33;;
75218;SDS011;63801;49.414;19.474;2024-02-23T04:43:27;2.10;;;1.35;;
75218;SDS011;63801;49.414;19.474;2024-02-23T04:45:28;2.22;;;1.23;;
75218;SDS011;63801;49.414;19.474;2024-02-23T04:47:28;1.73;;;1.08;;
75218;SDS011;63801;49.414;19.474;2024-02-23T04:49:28;2.88;;;1.33;;
75218;SDS011;63801;49.414;19.474;2024-02-23T04:51:29;1.48;;;1.10;;
75218;SDS011;63801;49.414;19.474;2024-02-23T04:53:29;2.75;;;1.10;;
75218;SDS011;63801;49.414;19.474;2024-02-23T04:55:30;2.65;;;1.70;;
75218;SDS011;63801;49.414;19.474;2024-02-23T04:57:31;2.75;;;1.30;;
75218;SDS011;63801;49.414;19.474;2024-02-23T04:59:31;2.10;;;1.35;;
75218;SDS011;63801;49.414;19.474;2024-02-23T05:01:38;4.13;;;1.60;;
75218;SDS011;63801;49.414;19.474;2024-02-23T05:03:38;3.78;;;1.73;;
75218;SDS011;63801;49.414;19.474;2024-02-23T05:05:39;2.80;;;1.65;;
75218;SDS011;63801;49.414;19.474;2024-02-23T05:07:39;2.60;;;1.58;;
75218;SDS011;63801;49.414;19.474;2024-02-23T05:09:39;7.45;;;2.03;;
75218;SDS011;63801;49.414;19.474;2024-02-23T05:11:40;3.83;;;2.00;;
75218;SDS011;63801;49.414;19.474;2024-02-23T05:13:41;4.00;;;1.60;;
75218;SDS011;63801;49.414;19.474;2024-02-23T05:15:41;2.72;;;1.40;;
75218;SDS011;63801;49.414;19.474;2024-02-23T05:17:42;1.92;;;1.08;;
75218;SDS011;63801;49.414;19.474;2024-02-23T05:19:42;3.83;;;2.13;;
75218;SDS011;63801;49.414;19.474;2024-02-23T05:21:43;2.00;;;1.20;;
75218;SDS011;63801;49.414;19.474;2024-02-23T05:23:43;2.05;;;1.52;;
75218;SDS011;63801;49.414;19.474;2024-02-23T05:25:46;2.30;;;1.60;;
75218;SDS011;63801;49.414;19.474;2024-02-23T05:27:47;3.55;;;2.15;;
75218;SDS011;63801;49.414;19.474;2024-02-23T05:29:48;3.08;;;1.80;;
75218;SDS011;63801;49.414;19.474;2024-02-23T05:31:52;4.20;;;1.52;;
75218;SDS011;63801;49.414;19.474;2024-02-23T05:33:53;2.10;;;1.27;;
75218;SDS011;63801;49.414;19.474;2024-02-23T05:35:53;2.38;;;1.27;;
75218;SDS011;63801;49.414;19.474;2024-02-23T05:37:53;2.08;;;1.10;;
75218;SDS011;63801;49.414;19.474;2024-02-23T05:39:55;2.63;;;1.48;;
75218;SDS011;63801;49.414;19.474;2024-02-23T05:41:55;3.88;;;2.33;;
75218;SDS011;63801;49.414;19.474;2024-02-23T05:43:55;2.47;;;1.30;;
75218;SDS011;63801;49.414;19.474;2024-02-23T05:45:56;2.13;;;1.25;;
75218;SDS011;63801;49.414;19.474;2024-02-23T05:47:58;1.27;;;1.00;;
75218;SDS011;63801;49.414;19.474;2024-02-23T05:49:58;3.45;;;1.17;;
75218;SDS011;63801;49.414;19.474;2024-02-23T05:51:59;1.58;;;1.20;;
75218;SDS011;63801;49.414;19.474;2024-02-23T05:53:59;4.32;;;1.27;;
75218;SDS011;63801;49.414;19.474;2024-02-23T05:55:59;2.08;;;1.20;;
75218;SDS011;63801;49.414;19.474;2024-02-23T05:58:00;2.65;;;1.27;;
75218;SDS011;63801;49.414;19.474;2024-02-23T06:00:00;3.20;;;1.42;;
75218;SDS011;63801;49.414;19.474;2024-02-23T06:02:00;2.05;;;0.95;;
75218;SDS011;63801;49.414;19.474;2024-02-23T06:04:01;2.45;;;1.20;;
75218;SDS011;63801;49.414;19.474;2024-02-23T06:06:01;3.53;;;1.40;;
75218;SDS011;63801;49.414;19.474;2024-02-23T06:08:02;2.92;;;1.70;;
75218;SDS011;63801;49.414;19.474;2024-02-23T06:10:02;2.40;;;1.40;;
75218;SDS011;63801;49.414;19.474;2024-02-23T06:12:04;2.42;;;1.23;;
75218;SDS011;63801;49.414;19.474;2024-02-23T06:14:05;1.85;;;0.90;;
75218;SDS011;63801;49.414;19.474;2024-02-23T06:16:09;2.92;;;0.90;;
75218;SDS011;63801;49.414;19.474;2024-02-23T06:18:10;2.58;;;1.27;;
75218;SDS011;63801;49.414;19.474;2024-02-23T06:20:10;2.58;;;0.88;;
75218;SDS011;63801;49.414;19.474;2024-02-23T06:22:11;2.88;;;1.60;;
75218;SDS011;63801;49.414;19.474;2024-02-23T06:24:12;1.73;;;1.15;;
75218;SDS011;63801;49.414;19.474;2024-02-23T06:26:12;2.25;;;1.55;;
75218;SDS011;63801;49.414;19.474;2024-02-23T06:28:12;1.88;;;1.00;;
75218;SDS011;63801;49.414;19.474;2024-02-23T06:30:13;3.28;;;1.00;;
75218;SDS011;63801;49.414;19.474;2024-02-23T06:32:13;2.35;;;1.10;;
75218;SDS011;63801;49.414;19.474;2024-02-23T06:34:14;3.30;;;1.67;;
75218;SDS011;63801;49.414;19.474;2024-02-23T06:36:15;3.83;;;1.55;;
75218;SDS011;63801;49.414;19.474;2024-02-23T06:38:16;1.92;;;1.30;;
75218;SDS011;63801;49.414;19.474;2024-02-23T06:40:16;4.82;;;1.23;;
75218;SDS011;63801;49.414;19.474;2024-02-23T06:42:18;3.33;;;1.95;;
75218;SDS011;63801;49.414;19.474;2024-02-23T06:44:18;1.83;;;1.00;;
75218;SDS011;63801;49.414;19.474;2024-02-23T06:46:19;2.20;;;1.10;;
75218;SDS011;63801;49.414;19.474;2024-02-23T06:48:23;2.28;;;0.90;;
75218;SDS011;63801;49.414;19.474;2024-02-23T06:50:24;2.35;;;1.10;;
75218;SDS011;63801;49.414;19.474;2024-02-23T06:52:24;4.97;;;1.80;;
75218;SDS011;63801;49.414;19.474;2024-02-23T06:54:26;2.38;;;1.20;;
75218;SDS011;63801;49.414;19.474;2024-02-23T06:56:26;3.22;;;1.52;;
75218;SDS011;63801;49.414;19.474;2024-02-23T06:58:26;1.95;;;1.10;;
75218;SDS011;63801;49.414;19.474;2024-02-23T07:00:27;2.75;;;1.10;;
75218;SDS011;63801;49.414;19.474;2024-02-23T07:02:28;2.30;;;1.15;;
75218;SDS011;63801;49.414;19.474;2024-02-23T07:04:31;3.70;;;1.40;;
75218;SDS011;63801;49.414;19.474;2024-02-23T07:06:32;0.88;;;0.70;;
75218;SDS011;63801;49.414;19.474;2024-02-23T07:08:32;2.33;;;1.00;;
75218;SDS011;63801;49.414;19.474;2024-02-23T07:10:32;2.85;;;0.90;;
75218;SDS011;63801;49.414;19.474;2024-02-23T07:12:33;1.45;;;1.00;;
75218;SDS011;63801;49.414;19.474;2024-02-23T07:14:33;3.20;;;1.50;;
75218;SDS011;63801;49.414;19.474;2024-02-23T07:16:33;1.98;;;0.98;;
75218;SDS011;63801;49.414;19.474;2024-02-23T07:18:38;3.13;;;1.50;;
75218;SDS011;63801;49.414;19.474;2024-02-23T07:20:41;0.85;;;0.77;;
75218;SDS011;63801;49.414;19.474;2024-02-23T07:22:44;1.80;;;1.10;;
75218;SDS011;63801;49.414;19.474;2024-02-23T07:24:48;1.63;;;0.90;;
75218;SDS011;63801;49.414;19.474;2024-02-23T07:26:49;3.58;;;1.00;;
75218;SDS011;63801;49.414;19.474;2024-02-23T07:28:49;1.33;;;0.90;;
75218;SDS011;63801;49.414;19.474;2024-02-23T07:30:50;1.40;;;0.90;;
75218;SDS011;63801;49.414;19.474;2024-02-23T07:32:51;1.20;;;0.80;;
75218;SDS011;63801;49.414;19.474;2024-02-23T07:34:51;1.33;;;0.73;;
75218;SDS011;63801;49.414;19.474;2024-02-23T07:36:51;3.38;;;2.58;;
75218;SDS011;63801;49.414;19.474;2024-02-23T07:38:52;3.78;;;2.85;;
75218;SDS011;63801;49.414;19.474;2024-02-23T07:40:53;3.75;;;1.83;;
75218;SDS011;63801;49.414;19.474;2024-02-23T07:42:53;1.55;;;1.10;;
75218;SDS011;63801;49.414;19.474;2024-02-23T07:44:53;4.93;;;2.20;;
75218;SDS011;63801;49.414;19.474;2024-02-23T07:46:53;2.08;;;1.20;;
75218;SDS011;63801;49.414;19.474;2024-02-23T07:48:55;1.10;;;0.80;;
75218;SDS011;63801;49.414;19.474;2024-02-23T07:50:55;1.73;;;1.30;;
75218;SDS011;63801;49.414;19.474;2024-02-23T07:52:56;2.72;;;0.95;;
75218;SDS011;63801;49.414;19.474;2024-02-23T07:54:56;1.65;;;0.73;;
75218;SDS011;63801;49.414;19.474;2024-02-23T07:56:56;1.48;;;0.82;;
75218;SDS011;63801;49.414;19.474;2024-02-23T07:58:57;1.35;;;0.70;;
75218;SDS011;63801;49.414;19.474;2024-02-23T08:00:57;1.65;;;1.00;;
75218;SDS011;63801;49.414;19.474;2024-02-23T08:02:58;1.38;;;0.70;;
75218;SDS011;63801;49.414;19.474;2024-02-23T08:04:59;2.45;;;1.05;;
75218;SDS011;63801;49.414;19.474;2024-02-23T08:07:00;2.28;;;0.80;;
75218;SDS011;63801;49.414;19.474;2024-02-23T08:09:00;2.60;;;0.95;;
75218;SDS011;63801;49.414;19.474;2024-02-23T08:11:02;1.05;;;0.63;;
75218;SDS011;63801;49.414;19.474;2024-02-23T08:13:03;0.90;;;0.60;;
75218;SDS011;63801;49.414;19.474;2024-02-23T08:15:04;3.03;;;1.10;;
75218;SDS011;63801;49.414;19.474;2024-02-23T08:17:04;1.75;;;0.80;;
75218;SDS011;63801;49.414;19.474;2024-02-23T08:19:05;3.58;;;1.30;;
75218;SDS011;63801;49.414;19.474;2024-02-23T08:21:05;3.38;;;1.55;;
75218;SDS011;63801;49.414;19.474;2024-02-23T08:23:05;2.72;;;1.40;;
75218;SDS011;63801;49.414;19.474;2024-02-23T08:25:06;2.10;;;1.23;;
75218;SDS011;63801;49.414;19.474;2024-02-23T08:27:07;1.92;;;1.17;;
75218;SDS011;63801;49.414;19.474;2024-02-23T08:29:08;2.30;;;0.95;;
75218;SDS011;63801;49.414;19.474;2024-02-23T08:31:08;1.55;;;0.90;;
75218;SDS011;63801;49.414;19.474;2024-02-23T08:33:09;2.30;;;1.52;;
75218;SDS011;63801;49.414;19.474;2024-02-23T08:35:11;2.05;;;1.10;;
75218;SDS011;63801;49.414;19.474;2024-02-23T08:37:12;2.13;;;1.20;;
75218;SDS011;63801;49.414;19.474;2024-02-23T08:39:12;6.18;;;2.47;;
75218;SDS011;63801;49.414;19.474;2024-02-23T08:41:13;2.50;;;1.02;;
75218;SDS011;63801;49.414;19.474;2024-02-23T08:43:13;4.03;;;1.77;;
75218;SDS011;63801;49.414;19.474;2024-02-23T08:45:13;2.75;;;1.23;;
75218;SDS011;63801;49.414;19.474;2024-02-23T08:47:14;2.03;;;1.00;;
75218;SDS011;63801;49.414;19.474;2024-02-23T08:49:14;1.98;;;1.00;;
75218;SDS011;63801;49.414;19.474;2024-02-23T08:51:14;1.60;;;0.68;;
75218;SDS011;63801;49.414;19.474;2024-02-23T08:53:15;1.38;;;0.80;;
75218;SDS011;63801;49.414;19.474;2024-02-23T08:55:15;3.00;;;1.10;;
75218;SDS011;63801;49.414;19.474;2024-02-23T08:57:15;2.10;;;0.77;;
75218;SDS011;63801;49.414;19.474;2024-02-23T08:59:19;1.75;;;0.80;;
75218;SDS011;63801;49.414;19.474;2024-02-23T09:01:19;2.20;;;0.90;;
75218;SDS011;63801;49.414;19.474;2024-02-23T09:03:19;2.28;;;0.80;;
75218;SDS011;63801;49.414;19.474;2024-02-23T09:05:20;2.25;;;0.75;;
75218;SDS011;63801;49.414;19.474;2024-02-23T09:07:20;1.60;;;0.70;;
75218;SDS011;63801;49.414;19.474;2024-02-23T09:09:21;2.80;;;1.10;;
75218;SDS011;63801;49.414;19.474;2024-02-23T09:11:22;2.80;;;1.40;;
75218;SDS011;63801;49.414;19.474;2024-02-23T09:13:22;1.55;;;1.00;;
75218;SDS011;63801;49.414;19.474;2024-02-23T09:15:22;1.35;;;0.68;;
75218;SDS011;63801;49.414;19.474;2024-02-23T09:17:23;1.70;;;1.10;;
75218;SDS011;63801;49.414;19.474;2024-02-23T09:19:23;1.67;;;0.95;;
75218;SDS011;63801;49.414;19.474;2024-02-23T09:21:24;2.38;;;0.90;;
75218;SDS011;63801;49.414;19.474;2024-02-23T09:23:24;1.17;;;0.82;;
75218;SDS011;63801;49.414;19.474;2024-02-23T09:25:25;3.65;;;1.48;;
75218;SDS011;63801;49.414;19.474;2024-02-23T09:27:25;3.70;;;1.30;;
75218;SDS011;63801;49.414;19.474;2024-02-23T09:29:27;3.08;;;1.52;;
75218;SDS011;63801;49.414;19.474;2024-02-23T09:31:27;4.68;;;2.33;;
75218;SDS011;63801;49.414;19.474;2024-02-23T09:33:28;6.55;;;2.35;;
75218;SDS011;63801;49.414;19.474;2024-02-23T09:35:28;2.42;;;1.50;;
75218;SDS011;63801;49.414;19.474;2024-02-23T09:37:29;2.05;;;0.80;;
75218;SDS011;63801;49.414;19.474;2024-02-23T09:39:29;2.22;;;0.90;;
75218;SDS011;63801;49.414;19.474;2024-02-23T09:41:30;2.08;;;1.08;;
75218;SDS011;63801;49.414;19.474;2024-02-23T09:43:30;3.55;;;1.13;;
75218;SDS011;63801;49.414;19.474;2024-02-23T09:45:33;2.45;;;1.15;;
75218;SDS011;63801;49.414;19.474;2024-02-23T09:47:33;6.03;;;2.28;;
75218;SDS011;63801;49.414;19.474;2024-02-23T09:49:37;8.00;;;2.40;;
75218;SDS011;63801;49.414;19.474;2024-02-23T09:51:42;5.68;;;1.83;;
75218;SDS011;63801;49.414;19.474;2024-02-23T09:53:43;5.47;;;2.42;;
75218;SDS011;63801;49.414;19.474;2024-02-23T09:55:44;8.27;;;3.25;;
75218;SDS011;63801;49.414;19.474;2024-02-23T09:57:45;5.45;;;2.25;;
75218;SDS011;63801;49.414;19.474;2024-02-23T09:59:48;8.82;;;2.90;;
75218;SDS011;63801;49.414;19.474;2024-02-23T10:01:49;4.30;;;1.48;;
75218;SDS011;63801;49.414;19.474;2024-02-23T10:03:53;4.38;;;2.15;;
75218;SDS011;63801;49.414;19.474;2024-02-23T10:05:57;1.95;;;0.90;;
75218;SDS011;63801;49.414;19.474;2024-02-23T10:07:58;2.05;;;1.00;;
75218;SDS011;63801;49.414;19.474;2024-02-23T10:09:58;2.05;;;1.00;;
75218;SDS011;63801;49.414;19.474;2024-02-23T10:11:59;1.90;;;1.02;;
75218;SDS011;63801;49.414;19.474;2024-02-23T10:13:59;3.60;;;1.10;;
75218;SDS011;63801;49.414;19.474;2024-02-23T10:15:59;1.23;;;0.80;;
75218;SDS011;63801;49.414;19.474;2024-02-23T10:18:00;2.97;;;1.33;;
75218;SDS011;63801;49.414;19.474;2024-02-23T10:20:00;3.10;;;1.40;;
75218;SDS011;63801;49.414;19.474;2024-02-23T10:22:04;5.03;;;2.47;;
75218;SDS011;63801;49.414;19.474;2024-02-23T10:24:05;2.67;;;1.30;;
75218;SDS011;63801;49.414;19.474;2024-02-23T10:26:06;2.67;;;1.30;;
75218;SDS011;63801;49.414;19.474;2024-02-23T10:28:07;3.15;;;1.52;;
75218;SDS011;63801;49.414;19.474;2024-02-23T10:30:07;3.42;;;1.20;;
75218;SDS011;63801;49.414;19.474;2024-02-23T10:32:12;1.98;;;1.00;;
75218;SDS011;63801;49.414;19.474;2024-02-23T10:34:15;4.38;;;1.10;;
75218;SDS011;63801;49.414;19.474;2024-02-23T10:36:19;3.15;;;1.38;;
75218;SDS011;63801;49.414;19.474;2024-02-23T10:38:19;9.27;;;2.63;;
75218;SDS011;63801;49.414;19.474;2024-02-23T10:40:21;4.35;;;1.65;;
75218;SDS011;63801;49.414;19.474;2024-02-23T10:42:23;6.50;;;2.15;;
75218;SDS011;63801;49.414;19.474;2024-02-23T10:44:28;4.32;;;1.55;;
75218;SDS011;63801;49.414;19.474;2024-02-23T10:46:28;4.18;;;1.88;;
75218;SDS011;63801;49.414;19.474;2024-02-23T10:48:30;2.72;;;1.02;;
75218;SDS011;63801;49.414;19.474;2024-02-23T10:50:30;2.45;;;1.08;;
75218;SDS011;63801;49.414;19.474;2024-02-23T10:52:32;2.57;;;1.00;;
75218;SDS011;63801;49.414;19.474;2024-02-23T10:54:33;2.22;;;0.80;;
75218;SDS011;63801;49.414;19.474;2024-02-23T10:56:34;1.88;;;0.90;;
75218;SDS011;63801;49.414;19.474;2024-02-23T10:58:35;3.40;;;1.05;;
75218;SDS011;63801;49.414;19.474;2024-02-23T11:00:35;2.50;;;0.90;;
75218;SDS011;63801;49.414;19.474;2024-02-23T11:02:37;3.35;;;1.00;;
75218;SDS011;63801;49.414;19.474;2024-02-23T11:04:45;7.05;;;2.88;;
75218;SDS011;63801;49.414;19.474;2024-02-23T11:06:59;3.30;;;2.47;;
75218;SDS011;63801;49.414;19.474;2024-02-23T11:09:04;4.90;;;1.90;;
75218;SDS011;63801;49.414;19.474;2024-02-23T11:11:10;1.90;;;0.90;;
75218;SDS011;63801;49.414;19.474;2024-02-23T11:13:13;2.03;;;1.10;;
75218;SDS011;63801;49.414;19.474;2024-02-23T11:15:27;1.50;;;0.88;;
75218;SDS011;63801;49.414;19.474;2024-02-23T11:17:29;2.83;;;1.10;;
75218;SDS011;63801;49.414;19.474;2024-02-23T11:19:37;2.55;;;1.30;;
75218;SDS011;63801;49.414;19.474;2024-02-23T11:21:39;1.42;;;0.80;;
75218;SDS011;63801;49.414;19.474;2024-02-23T11:23:48;2.08;;;0.80;;
75218;SDS011;63801;49.414;19.474;2024-02-23T11:28:03;2.30;;;1.00;;
75218;SDS011;63801;49.414;19.474;2024-02-23T11:30:04;1.27;;;0.70;;
75218;SDS011;63801;49.414;19.474;2024-02-23T11:32:17;2.13;;;0.90;;
75218;SDS011;63801;49.414;19.474;2024-02-23T11:34:21;1.40;;;0.82;;
75218;SDS011;63801;49.414;19.474;2024-02-23T11:36:28;2.08;;;1.05;;
75218;SDS011;63801;49.414;19.474;2024-02-23T11:38:30;3.38;;;1.10;;
75218;SDS011;63801;49.414;19.474;2024-02-23T11:40:32;1.98;;;1.00;;
75218;SDS011;63801;49.414;19.474;2024-02-23T11:42:33;1.73;;;0.82;;
75218;SDS011;63801;49.414;19.474;2024-02-23T11:44:35;4.05;;;1.25;;
75218;SDS011;63801;49.414;19.474;2024-02-23T11:46:35;2.55;;;1.25;;
75218;SDS011;63801;49.414;19.474;2024-02-23T11:48:36;2.65;;;1.20;;
75218;SDS011;63801;49.414;19.474;2024-02-23T11:50:36;2.42;;;0.98;;
75218;SDS011;63801;49.414;19.474;2024-02-23T11:52:37;3.22;;;1.17;;
75218;SDS011;63801;49.414;19.474;2024-02-23T11:54:38;3.10;;;1.33;;
75218;SDS011;63801;49.414;19.474;2024-02-23T11:56:39;2.75;;;1.15;;
75218;SDS011;63801;49.414;19.474;2024-02-23T11:58:40;2.13;;;1.13;;
75218;SDS011;63801;49.414;19.474;2024-02-23T12:00:41;2.83;;;1.13;;